sensor_id;sensor_type;location;lat;lon;timestamp;P1;durP1;ratioP1;P2;durP2;ratioP2
62861;SDS011;48953;53.110;5.592;2022-07-12T00:01:53;6.70;;;4.35;;
62861;SDS011;48953;53.110;5.592;2022-07-12T00:04:19;8.38;;;4.00;;
62861;SDS011;48953;53.110;5.592;2022-07-12T00:06:45;7.10;;;4.38;;
62861;SDS011;48953;53.110;5.592;2022-07-12T00:09:10;8.45;;;5.00;;
62861;SDS011;48953;53.110;5.592;2022-07-12T00:11:36;7.40;;;4.55;;
62861;SDS011;48953;53.110;5.592;2022-07-12T00:14:02;7.25;;;4.53;;
62861;SDS011;48953;53.110;5.592;2022-07-12T00:16:28;6.65;;;4.57;;
62861;SDS011;48953;53.110;5.592;2022-07-12T00:18:54;7.47;;;4.90;;
62861;SDS011;48953;53.110;5.592;2022-07-12T00:21:20;9.13;;;4.75;;
62861;SDS011;48953;53.110;5.592;2022-07-12T00:23:45;7.85;;;5.03;;
62861;SDS011;48953;53.110;5.592;2022-07-12T00:26:11;8.10;;;4.55;;
62861;SDS011;48953;53.110;5.592;2022-07-12T00:28:37;7.05;;;4.53;;
62861;SDS011;48953;53.110;5.592;2022-07-12T00:31:02;7.38;;;4.60;;
62861;SDS011;48953;53.110;5.592;2022-07-12T00:33:28;7.60;;;4.75;;
62861;SDS011;48953;53.110;5.592;2022-07-12T00:35:54;7.43;;;4.20;;
62861;SDS011;48953;53.110;5.592;2022-07-12T00:38:20;11.63;;;4.32;;
62861;SDS011;48953;53.110;5.592;2022-07-12T00:40:46;10.27;;;4.00;;
62861;SDS011;48953;53.110;5.592;2022-07-12T00:43:12;16.95;;;4.10;;
62861;SDS011;48953;53.110;5.592;2022-07-12T00:45:37;25.25;;;4.07;;
62861;SDS011;48953;53.110;5.592;2022-07-12T00:48:03;21.60;;;3.90;;
62861;SDS011;48953;53.110;5.592;2022-07-12T00:50:29;18.55;;;4.03;;
62861;SDS011;48953;53.110;5.592;2022-07-12T00:52:56;13.93;;;3.75;;
62861;SDS011;48953;53.110;5.592;2022-07-12T00:55:22;20.77;;;4.50;;
62861;SDS011;48953;53.110;5.592;2022-07-12T00:57:48;9.65;;;3.90;;
62861;SDS011;48953;53.110;5.592;2022-07-12T01:00:19;6.60;;;4.05;;
62861;SDS011;48953;53.110;5.592;2022-07-12T01:02:49;9.98;;;4.80;;
62861;SDS011;48953;53.110;5.592;2022-07-12T01:05:16;8.02;;;4.30;;
62861;SDS011;48953;53.110;5.592;2022-07-12T01:07:42;7.72;;;4.30;;
62861;SDS011;48953;53.110;5.592;2022-07-12T01:10:10;7.35;;;4.22;;
62861;SDS011;48953;53.110;5.592;2022-07-12T01:12:36;8.40;;;4.15;;
62861;SDS011;48953;53.110;5.592;2022-07-12T01:15:02;12.00;;;5.10;;
62861;SDS011;48953;53.110;5.592;2022-07-12T01:17:30;9.85;;;4.97;;
62861;SDS011;48953;53.110;5.592;2022-07-12T01:19:58;9.13;;;5.25;;
62861;SDS011;48953;53.110;5.592;2022-07-12T01:22:29;9.05;;;5.07;;
62861;SDS011;48953;53.110;5.592;2022-07-12T01:24:56;9.55;;;5.20;;
62861;SDS011;48953;53.110;5.592;2022-07-12T01:27:22;8.00;;;4.88;;
62861;SDS011;48953;53.110;5.592;2022-07-12T01:29:48;9.05;;;5.10;;
62861;SDS011;48953;53.110;5.592;2022-07-12T01:32:14;10.02;;;5.22;;
62861;SDS011;48953;53.110;5.592;2022-07-12T01:35:00;6.93;;;4.32;;
62861;SDS011;48953;53.110;5.592;2022-07-12T01:37:28;6.95;;;4.78;;
62861;SDS011;48953;53.110;5.592;2022-07-12T01:39:56;9.38;;;4.63;;
62861;SDS011;48953;53.110;5.592;2022-07-12T01:42:24;13.98;;;5.25;;
62861;SDS011;48953;53.110;5.592;2022-07-12T01:44:51;12.55;;;4.88;;
62861;SDS011;48953;53.110;5.592;2022-07-12T01:47:18;9.95;;;4.57;;
62861;SDS011;48953;53.110;5.592;2022-07-12T01:49:48;23.90;;;4.82;;
62861;SDS011;48953;53.110;5.592;2022-07-12T01:52:14;7.30;;;3.97;;
62861;SDS011;48953;53.110;5.592;2022-07-12T01:54:40;9.73;;;3.72;;
62861;SDS011;48953;53.110;5.592;2022-07-12T01:57:07;17.77;;;3.92;;
62861;SDS011;48953;53.110;5.592;2022-07-12T01:59:32;10.02;;;3.50;;
62861;SDS011;48953;53.110;5.592;2022-07-12T02:01:59;14.40;;;4.05;;
62861;SDS011;48953;53.110;5.592;2022-07-12T02:04:25;5.38;;;3.13;;
62861;SDS011;48953;53.110;5.592;2022-07-12T02:06:51;4.30;;;3.03;;
62861;SDS011;48953;53.110;5.592;2022-07-12T02:09:17;25.48;;;3.78;;
62861;SDS011;48953;53.110;5.592;2022-07-12T02:11:43;5.07;;;2.92;;
62861;SDS011;48953;53.110;5.592;2022-07-12T02:14:09;5.47;;;3.50;;
62861;SDS011;48953;53.110;5.592;2022-07-12T02:16:37;5.65;;;3.22;;
62861;SDS011;48953;53.110;5.592;2022-07-12T02:19:03;5.47;;;2.80;;
62861;SDS011;48953;53.110;5.592;2022-07-12T02:21:29;21.42;;;3.35;;
62861;SDS011;48953;53.110;5.592;2022-07-12T02:23:54;6.10;;;3.10;;
62861;SDS011;48953;53.110;5.592;2022-07-12T02:26:20;8.45;;;3.00;;
62861;SDS011;48953;53.110;5.592;2022-07-12T02:28:45;8.73;;;3.10;;
62861;SDS011;48953;53.110;5.592;2022-07-12T02:31:11;11.02;;;3.17;;
62861;SDS011;48953;53.110;5.592;2022-07-12T02:33:37;12.05;;;3.08;;
62861;SDS011;48953;53.110;5.592;2022-07-12T02:36:02;13.23;;;3.40;;
62861;SDS011;48953;53.110;5.592;2022-07-12T02:38:28;8.30;;;3.65;;
62861;SDS011;48953;53.110;5.592;2022-07-12T02:40:54;4.22;;;3.05;;
62861;SDS011;48953;53.110;5.592;2022-07-12T02:43:26;5.25;;;3.33;;
62861;SDS011;48953;53.110;5.592;2022-07-12T02:45:53;5.88;;;3.65;;
62861;SDS011;48953;53.110;5.592;2022-07-12T02:48:23;10.18;;;4.00;;
62861;SDS011;48953;53.110;5.592;2022-07-12T02:50:49;7.53;;;3.92;;
62861;SDS011;48953;53.110;5.592;2022-07-12T02:53:14;6.10;;;3.90;;
62861;SDS011;48953;53.110;5.592;2022-07-12T02:55:41;8.00;;;4.10;;
62861;SDS011;48953;53.110;5.592;2022-07-12T02:58:07;6.22;;;3.72;;
62861;SDS011;48953;53.110;5.592;2022-07-12T03:00:37;7.72;;;4.40;;
62861;SDS011;48953;53.110;5.592;2022-07-12T03:03:02;10.80;;;5.20;;
62861;SDS011;48953;53.110;5.592;2022-07-12T03:05:28;9.07;;;4.47;;
62861;SDS011;48953;53.110;5.592;2022-07-12T03:07:54;9.43;;;4.80;;
62861;SDS011;48953;53.110;5.592;2022-07-12T03:10:21;12.40;;;5.55;;
62861;SDS011;48953;53.110;5.592;2022-07-12T03:12:47;8.80;;;4.93;;
62861;SDS011;48953;53.110;5.592;2022-07-12T03:15:12;8.18;;;3.95;;
62861;SDS011;48953;53.110;5.592;2022-07-12T03:17:38;9.07;;;5.50;;
62861;SDS011;48953;53.110;5.592;2022-07-12T03:20:04;10.13;;;5.03;;
62861;SDS011;48953;53.110;5.592;2022-07-12T03:22:36;8.10;;;4.53;;
62861;SDS011;48953;53.110;5.592;2022-07-12T03:25:02;8.73;;;4.50;;
62861;SDS011;48953;53.110;5.592;2022-07-12T03:27:28;8.40;;;4.25;;
62861;SDS011;48953;53.110;5.592;2022-07-12T03:29:56;7.72;;;4.03;;
62861;SDS011;48953;53.110;5.592;2022-07-12T03:32:22;6.97;;;4.05;;
62861;SDS011;48953;53.110;5.592;2022-07-12T03:34:48;7.70;;;3.92;;
62861;SDS011;48953;53.110;5.592;2022-07-12T03:37:13;8.98;;;3.85;;
62861;SDS011;48953;53.110;5.592;2022-07-12T03:39:39;7.75;;;4.28;;
62861;SDS011;48953;53.110;5.592;2022-07-12T03:42:04;8.00;;;4.43;;
62861;SDS011;48953;53.110;5.592;2022-07-12T03:44:30;9.93;;;4.85;;
62861;SDS011;48953;53.110;5.592;2022-07-12T03:46:56;8.40;;;4.30;;
62861;SDS011;48953;53.110;5.592;2022-07-12T03:49:21;6.88;;;4.60;;
62861;SDS011;48953;53.110;5.592;2022-07-12T03:51:47;7.80;;;4.43;;
62861;SDS011;48953;53.110;5.592;2022-07-12T03:54:12;9.27;;;4.45;;
62861;SDS011;48953;53.110;5.592;2022-07-12T03:56:38;8.18;;;4.32;;
62861;SDS011;48953;53.110;5.592;2022-07-12T03:59:22;7.65;;;4.65;;
62861;SDS011;48953;53.110;5.592;2022-07-12T04:01:48;7.30;;;3.78;;
62861;SDS011;48953;53.110;5.592;2022-07-12T04:04:13;7.68;;;4.32;;
62861;SDS011;48953;53.110;5.592;2022-07-12T04:06:39;7.80;;;4.25;;
62861;SDS011;48953;53.110;5.592;2022-07-12T04:09:05;6.80;;;3.75;;
62861;SDS011;48953;53.110;5.592;2022-07-12T04:11:31;10.90;;;4.80;;
62861;SDS011;48953;53.110;5.592;2022-07-12T04:13:57;11.52;;;5.32;;
62861;SDS011;48953;53.110;5.592;2022-07-12T04:16:23;9.30;;;4.93;;
62861;SDS011;48953;53.110;5.592;2022-07-12T04:18:48;11.13;;;5.00;;
62861;SDS011;48953;53.110;5.592;2022-07-12T04:21:14;11.80;;;5.28;;
62861;SDS011;48953;53.110;5.592;2022-07-12T04:23:40;10.43;;;5.63;;
62861;SDS011;48953;53.110;5.592;2022-07-12T04:26:06;11.65;;;5.13;;
62861;SDS011;48953;53.110;5.592;2022-07-12T04:28:31;11.38;;;5.88;;
62861;SDS011;48953;53.110;5.592;2022-07-12T04:30:57;6.78;;;4.40;;
62861;SDS011;48953;53.110;5.592;2022-07-12T04:33:22;7.30;;;4.63;;
62861;SDS011;48953;53.110;5.592;2022-07-12T04:35:48;7.65;;;4.25;;
62861;SDS011;48953;53.110;5.592;2022-07-12T04:38:14;5.07;;;3.67;;
62861;SDS011;48953;53.110;5.592;2022-07-12T04:40:39;4.30;;;3.42;;
62861;SDS011;48953;53.110;5.592;2022-07-12T04:43:05;4.13;;;3.45;;
62861;SDS011;48953;53.110;5.592;2022-07-12T04:45:31;4.93;;;3.10;;
62861;SDS011;48953;53.110;5.592;2022-07-12T04:47:56;4.45;;;3.42;;
62861;SDS011;48953;53.110;5.592;2022-07-12T04:50:22;4.78;;;3.42;;
62861;SDS011;48953;53.110;5.592;2022-07-12T04:52:47;4.07;;;3.30;;
62861;SDS011;48953;53.110;5.592;2022-07-12T04:55:13;3.75;;;3.22;;
62861;SDS011;48953;53.110;5.592;2022-07-12T04:57:39;4.32;;;3.30;;
62861;SDS011;48953;53.110;5.592;2022-07-12T05:00:05;4.97;;;3.47;;
62861;SDS011;48953;53.110;5.592;2022-07-12T05:02:32;4.28;;;3.20;;
62861;SDS011;48953;53.110;5.592;2022-07-12T05:04:57;4.32;;;3.55;;
62861;SDS011;48953;53.110;5.592;2022-07-12T05:07:23;3.97;;;3.30;;
62861;SDS011;48953;53.110;5.592;2022-07-12T05:09:49;5.38;;;3.28;;
62861;SDS011;48953;53.110;5.592;2022-07-12T05:12:16;4.38;;;3.58;;
62861;SDS011;48953;53.110;5.592;2022-07-12T05:14:42;2.95;;;2.63;;
62861;SDS011;48953;53.110;5.592;2022-07-12T05:17:07;3.13;;;2.53;;
62861;SDS011;48953;53.110;5.592;2022-07-12T05:19:33;3.70;;;2.75;;
62861;SDS011;48953;53.110;5.592;2022-07-12T05:21:58;3.90;;;2.78;;
62861;SDS011;48953;53.110;5.592;2022-07-12T05:24:24;3.90;;;3.05;;
62861;SDS011;48953;53.110;5.592;2022-07-12T05:26:49;3.13;;;2.45;;
62861;SDS011;48953;53.110;5.592;2022-07-12T05:29:15;4.20;;;2.83;;
62861;SDS011;48953;53.110;5.592;2022-07-12T05:31:40;3.42;;;2.50;;
62861;SDS011;48953;53.110;5.592;2022-07-12T05:34:06;2.80;;;2.50;;
62861;SDS011;48953;53.110;5.592;2022-07-12T05:36:31;3.75;;;2.58;;
62861;SDS011;48953;53.110;5.592;2022-07-12T05:38:57;4.47;;;2.70;;
62861;SDS011;48953;53.110;5.592;2022-07-12T05:41:23;4.93;;;3.13;;
62861;SDS011;48953;53.110;5.592;2022-07-12T05:43:48;3.65;;;2.67;;
62861;SDS011;48953;53.110;5.592;2022-07-12T05:46:14;3.25;;;2.78;;
62861;SDS011;48953;53.110;5.592;2022-07-12T05:48:39;3.63;;;3.13;;
62861;SDS011;48953;53.110;5.592;2022-07-12T05:51:05;3.50;;;3.20;;
62861;SDS011;48953;53.110;5.592;2022-07-12T05:53:49;4.18;;;3.15;;
62861;SDS011;48953;53.110;5.592;2022-07-12T05:56:14;3.92;;;3.22;;
62861;SDS011;48953;53.110;5.592;2022-07-12T05:58:40;4.57;;;3.25;;
62861;SDS011;48953;53.110;5.592;2022-07-12T06:01:06;3.40;;;3.10;;
62861;SDS011;48953;53.110;5.592;2022-07-12T06:03:31;3.50;;;3.13;;
62861;SDS011;48953;53.110;5.592;2022-07-12T06:05:57;3.72;;;3.40;;
62861;SDS011;48953;53.110;5.592;2022-07-12T06:08:23;3.28;;;2.88;;
62861;SDS011;48953;53.110;5.592;2022-07-12T06:10:49;4.47;;;3.33;;
62861;SDS011;48953;53.110;5.592;2022-07-12T06:13:15;4.32;;;3.50;;
62861;SDS011;48953;53.110;5.592;2022-07-12T06:15:40;3.58;;;3.22;;
62861;SDS011;48953;53.110;5.592;2022-07-12T06:18:06;3.45;;;3.15;;
62861;SDS011;48953;53.110;5.592;2022-07-12T06:20:31;3.80;;;3.30;;
62861;SDS011;48953;53.110;5.592;2022-07-12T06:22:57;3.80;;;3.10;;
62861;SDS011;48953;53.110;5.592;2022-07-12T06:25:23;3.90;;;3.50;;
62861;SDS011;48953;53.110;5.592;2022-07-12T06:27:49;3.40;;;3.10;;
62861;SDS011;48953;53.110;5.592;2022-07-12T06:30:19;3.58;;;3.28;;
62861;SDS011;48953;53.110;5.592;2022-07-12T06:32:46;3.15;;;2.95;;
62861;SDS011;48953;53.110;5.592;2022-07-12T06:35:12;3.17;;;2.92;;
62861;SDS011;48953;53.110;5.592;2022-07-12T06:37:38;3.50;;;3.20;;
62861;SDS011;48953;53.110;5.592;2022-07-12T06:40:04;3.60;;;3.17;;
62861;SDS011;48953;53.110;5.592;2022-07-12T06:42:31;3.97;;;3.20;;
62861;SDS011;48953;53.110;5.592;2022-07-12T06:44:56;3.70;;;3.40;;
62861;SDS011;48953;53.110;5.592;2022-07-12T06:47:22;3.35;;;3.03;;
62861;SDS011;48953;53.110;5.592;2022-07-12T06:49:47;3.40;;;3.10;;
62861;SDS011;48953;53.110;5.592;2022-07-12T06:52:13;3.28;;;3.03;;
62861;SDS011;48953;53.110;5.592;2022-07-12T06:54:39;3.45;;;3.08;;
62861;SDS011;48953;53.110;5.592;2022-07-12T06:57:05;3.72;;;3.40;;
62861;SDS011;48953;53.110;5.592;2022-07-12T06:59:31;3.55;;;3.25;;
62861;SDS011;48953;53.110;5.592;2022-07-12T07:01:56;2.95;;;2.75;;
62861;SDS011;48953;53.110;5.592;2022-07-12T07:04:22;3.92;;;3.60;;
62861;SDS011;48953;53.110;5.592;2022-07-12T07:06:49;3.85;;;3.47;;
62861;SDS011;48953;53.110;5.592;2022-07-12T07:09:14;3.65;;;3.35;;
62861;SDS011;48953;53.110;5.592;2022-07-12T07:11:40;3.97;;;3.67;;
62861;SDS011;48953;53.110;5.592;2022-07-12T07:14:06;4.28;;;3.55;;
62861;SDS011;48953;53.110;5.592;2022-07-12T07:16:33;4.82;;;4.43;;
62861;SDS011;48953;53.110;5.592;2022-07-12T07:18:58;3.83;;;3.53;;
62861;SDS011;48953;53.110;5.592;2022-07-12T07:21:24;4.20;;;3.90;;
62861;SDS011;48953;53.110;5.592;2022-07-12T07:23:50;3.90;;;3.60;;
62861;SDS011;48953;53.110;5.592;2022-07-12T07:26:16;4.38;;;3.97;;
62861;SDS011;48953;53.110;5.592;2022-07-12T07:28:42;5.65;;;4.47;;
62861;SDS011;48953;53.110;5.592;2022-07-12T07:31:26;4.38;;;4.07;;
62861;SDS011;48953;53.110;5.592;2022-07-12T07:33:51;4.55;;;4.15;;
62861;SDS011;48953;53.110;5.592;2022-07-12T07:36:17;4.65;;;4.25;;
62861;SDS011;48953;53.110;5.592;2022-07-12T07:38:43;4.18;;;3.70;;
62861;SDS011;48953;53.110;5.592;2022-07-12T07:41:08;4.32;;;3.88;;
62861;SDS011;48953;53.110;5.592;2022-07-12T07:43:34;4.80;;;4.40;;
62861;SDS011;48953;53.110;5.592;2022-07-12T07:45:59;4.32;;;3.92;;
62861;SDS011;48953;53.110;5.592;2022-07-12T07:48:26;4.70;;;4.25;;
62861;SDS011;48953;53.110;5.592;2022-07-12T07:50:52;4.00;;;3.60;;
62861;SDS011;48953;53.110;5.592;2022-07-12T07:53:18;4.00;;;3.70;;
62861;SDS011;48953;53.110;5.592;2022-07-12T07:55:44;4.28;;;3.88;;
62861;SDS011;48953;53.110;5.592;2022-07-12T07:58:10;4.13;;;3.72;;
62861;SDS011;48953;53.110;5.592;2022-07-12T08:00:35;4.20;;;3.80;;
62861;SDS011;48953;53.110;5.592;2022-07-12T08:03:01;4.50;;;4.10;;
62861;SDS011;48953;53.110;5.592;2022-07-12T08:05:27;3.95;;;3.55;;
62861;SDS011;48953;53.110;5.592;2022-07-12T08:07:52;4.43;;;4.00;;
62861;SDS011;48953;53.110;5.592;2022-07-12T08:10:18;3.83;;;3.53;;
62861;SDS011;48953;53.110;5.592;2022-07-12T08:12:44;3.55;;;3.28;;
62861;SDS011;48953;53.110;5.592;2022-07-12T08:15:09;4.28;;;3.97;;
62861;SDS011;48953;53.110;5.592;2022-07-12T08:17:36;4.20;;;3.80;;
62861;SDS011;48953;53.110;5.592;2022-07-12T08:20:02;4.47;;;4.15;;
62861;SDS011;48953;53.110;5.592;2022-07-12T08:22:29;4.45;;;4.10;;
62861;SDS011;48953;53.110;5.592;2022-07-12T08:24:54;4.32;;;4.03;;
62861;SDS011;48953;53.110;5.592;2022-07-12T08:27:20;4.00;;;3.70;;
62861;SDS011;48953;53.110;5.592;2022-07-12T08:29:46;6.07;;;3.72;;
62861;SDS011;48953;53.110;5.592;2022-07-12T08:32:11;3.97;;;3.67;;
62861;SDS011;48953;53.110;5.592;2022-07-12T08:34:37;5.63;;;5.13;;
62861;SDS011;48953;53.110;5.592;2022-07-12T08:37:03;3.95;;;3.65;;
62861;SDS011;48953;53.110;5.592;2022-07-12T08:39:29;4.93;;;4.53;;
62861;SDS011;48953;53.110;5.592;2022-07-12T08:41:54;3.97;;;3.65;;
62861;SDS011;48953;53.110;5.592;2022-07-12T08:44:20;4.47;;;4.10;;
62861;SDS011;48953;53.110;5.592;2022-07-12T08:46:46;4.00;;;3.70;;
62861;SDS011;48953;53.110;5.592;2022-07-12T08:49:12;4.45;;;4.10;;
62861;SDS011;48953;53.110;5.592;2022-07-12T08:51:38;4.63;;;4.22;;
62861;SDS011;48953;53.110;5.592;2022-07-12T08:54:10;4.97;;;4.50;;
62861;SDS011;48953;53.110;5.592;2022-07-12T08:56:41;3.60;;;3.30;;
62861;SDS011;48953;53.110;5.592;2022-07-12T08:59:09;4.20;;;3.90;;
62861;SDS011;48953;53.110;5.592;2022-07-12T09:01:54;4.30;;;3.95;;
62861;SDS011;48953;53.110;5.592;2022-07-12T09:04:23;4.22;;;3.75;;
62861;SDS011;48953;53.110;5.592;2022-07-12T09:06:49;4.63;;;4.00;;
62861;SDS011;48953;53.110;5.592;2022-07-12T09:09:29;4.40;;;4.00;;
62861;SDS011;48953;53.110;5.592;2022-07-12T09:11:56;4.20;;;3.72;;
62861;SDS011;48953;53.110;5.592;2022-07-12T09:14:22;4.35;;;3.97;;
62861;SDS011;48953;53.110;5.592;2022-07-12T09:17:00;4.40;;;4.07;;
62861;SDS011;48953;53.110;5.592;2022-07-12T09:19:36;4.53;;;4.13;;
62861;SDS011;48953;53.110;5.592;2022-07-12T09:22:02;4.57;;;4.25;;
62861;SDS011;48953;53.110;5.592;2022-07-12T09:24:29;4.15;;;3.85;;
62861;SDS011;48953;53.110;5.592;2022-07-12T09:27:03;4.78;;;4.35;;
62861;SDS011;48953;53.110;5.592;2022-07-12T09:29:30;4.22;;;3.92;;
62861;SDS011;48953;53.110;5.592;2022-07-12T09:31:57;5.00;;;4.60;;
62861;SDS011;48953;53.110;5.592;2022-07-12T09:34:55;5.28;;;4.28;;
62861;SDS011;48953;53.110;5.592;2022-07-12T09:37:41;4.70;;;4.30;;
62861;SDS011;48953;53.110;5.592;2022-07-12T09:40:07;4.80;;;4.25;;
62861;SDS011;48953;53.110;5.592;2022-07-12T09:42:34;4.75;;;4.35;;
62861;SDS011;48953;53.110;5.592;2022-07-12T09:45:01;4.47;;;4.18;;
62861;SDS011;48953;53.110;5.592;2022-07-12T09:47:26;4.93;;;3.90;;
62861;SDS011;48953;53.110;5.592;2022-07-12T09:49:53;4.10;;;3.80;;
62861;SDS011;48953;53.110;5.592;2022-07-12T09:52:20;4.55;;;4.25;;
62861;SDS011;48953;53.110;5.592;2022-07-12T09:54:49;4.85;;;4.50;;
62861;SDS011;48953;53.110;5.592;2022-07-12T09:57:19;4.70;;;4.30;;
62861;SDS011;48953;53.110;5.592;2022-07-12T09:59:45;4.05;;;3.70;;
62861;SDS011;48953;53.110;5.592;2022-07-12T10:02:16;4.60;;;4.20;;
62861;SDS011;48953;53.110;5.592;2022-07-12T10:04:42;4.82;;;4.43;;
62861;SDS011;48953;53.110;5.592;2022-07-12T10:07:10;4.35;;;3.95;;
62861;SDS011;48953;53.110;5.592;2022-07-12T10:09:40;4.20;;;3.67;;
62861;SDS011;48953;53.110;5.592;2022-07-12T10:12:10;5.30;;;4.80;;
62861;SDS011;48953;53.110;5.592;2022-07-12T10:14:37;5.57;;;5.07;;
62861;SDS011;48953;53.110;5.592;2022-07-12T10:17:05;5.93;;;5.53;;
62861;SDS011;48953;53.110;5.592;2022-07-12T10:19:34;6.03;;;4.85;;
62861;SDS011;48953;53.110;5.592;2022-07-12T10:22:02;4.15;;;3.75;;
62861;SDS011;48953;53.110;5.592;2022-07-12T10:29:41;6.00;;;5.50;;
62861;SDS011;48953;53.110;5.592;2022-07-12T10:32:26;6.35;;;5.75;;
62861;SDS011;48953;53.110;5.592;2022-07-12T10:35:00;5.30;;;4.90;;
62861;SDS011;48953;53.110;5.592;2022-07-12T10:37:30;7.57;;;6.82;;
62861;SDS011;48953;53.110;5.592;2022-07-12T10:40:16;6.30;;;5.70;;
62861;SDS011;48953;53.110;5.592;2022-07-12T10:48:29;6.32;;;5.72;;
62861;SDS011;48953;53.110;5.592;2022-07-12T10:50:55;5.55;;;5.13;;
62861;SDS011;48953;53.110;5.592;2022-07-12T10:53:23;5.90;;;5.40;;
62861;SDS011;48953;53.110;5.592;2022-07-12T10:56:18;5.72;;;4.07;;
62861;SDS011;48953;53.110;5.592;2022-07-12T10:58:53;3.80;;;3.50;;
62861;SDS011;48953;53.110;5.592;2022-07-12T11:01:22;5.32;;;4.53;;
62861;SDS011;48953;53.110;5.592;2022-07-12T11:04:05;4.22;;;3.85;;
62861;SDS011;48953;53.110;5.592;2022-07-12T11:06:41;4.47;;;4.03;;
62861;SDS011;48953;53.110;5.592;2022-07-12T11:09:08;4.95;;;3.80;;
62861;SDS011;48953;53.110;5.592;2022-07-12T11:11:39;4.22;;;3.83;;
62861;SDS011;48953;53.110;5.592;2022-07-12T11:14:11;4.88;;;3.72;;
62861;SDS011;48953;53.110;5.592;2022-07-12T11:16:45;5.15;;;4.65;;
62861;SDS011;48953;53.110;5.592;2022-07-12T11:19:12;5.05;;;4.20;;
62861;SDS011;48953;53.110;5.592;2022-07-12T11:21:38;3.53;;;3.22;;
62861;SDS011;48953;53.110;5.592;2022-07-12T11:24:17;3.22;;;2.92;;
62861;SDS011;48953;53.110;5.592;2022-07-12T11:26:44;4.95;;;4.53;;
62861;SDS011;48953;53.110;5.592;2022-07-12T11:29:11;6.57;;;4.53;;
62861;SDS011;48953;53.110;5.592;2022-07-12T11:31:37;3.72;;;2.90;;
62861;SDS011;48953;53.110;5.592;2022-07-12T11:34:02;5.70;;;4.65;;
62861;SDS011;48953;53.110;5.592;2022-07-12T11:36:28;4.95;;;3.17;;
62861;SDS011;48953;53.110;5.592;2022-07-12T11:38:55;4.95;;;3.40;;
62861;SDS011;48953;53.110;5.592;2022-07-12T11:41:21;4.88;;;4.32;;
62861;SDS011;48953;53.110;5.592;2022-07-12T11:43:48;7.30;;;4.60;;
62861;SDS011;48953;53.110;5.592;2022-07-12T11:46:14;4.72;;;3.85;;
62861;SDS011;48953;53.110;5.592;2022-07-12T11:48:41;6.10;;;5.20;;
62861;SDS011;48953;53.110;5.592;2022-07-12T11:51:08;7.97;;;5.00;;
62861;SDS011;48953;53.110;5.592;2022-07-12T11:53:35;9.93;;;6.93;;
62861;SDS011;48953;53.110;5.592;2022-07-12T11:56:03;8.60;;;7.75;;
62861;SDS011;48953;53.110;5.592;2022-07-12T11:58:36;8.27;;;6.88;;
62861;SDS011;48953;53.110;5.592;2022-07-12T12:01:09;8.70;;;7.00;;
62861;SDS011;48953;53.110;5.592;2022-07-12T12:03:48;8.93;;;6.60;;
62861;SDS011;48953;53.110;5.592;2022-07-12T12:06:14;6.90;;;6.10;;
62861;SDS011;48953;53.110;5.592;2022-07-12T12:08:44;8.45;;;7.05;;
62861;SDS011;48953;53.110;5.592;2022-07-12T12:11:10;12.15;;;7.35;;
62861;SDS011;48953;53.110;5.592;2022-07-12T12:13:36;9.65;;;6.72;;
62861;SDS011;48953;53.110;5.592;2022-07-12T12:16:04;7.47;;;5.25;;
62861;SDS011;48953;53.110;5.592;2022-07-12T12:18:34;6.50;;;4.90;;
62861;SDS011;48953;53.110;5.592;2022-07-12T12:21:02;7.28;;;5.35;;
62861;SDS011;48953;53.110;5.592;2022-07-12T12:23:30;5.68;;;4.22;;
62861;SDS011;48953;53.110;5.592;2022-07-12T12:31:11;5.05;;;4.55;;
62861;SDS011;48953;53.110;5.592;2022-07-12T12:33:42;7.10;;;5.75;;
62861;SDS011;48953;53.110;5.592;2022-07-12T12:38:58;4.35;;;3.95;;
62861;SDS011;48953;53.110;5.592;2022-07-12T12:41:29;4.95;;;4.07;;
62861;SDS011;48953;53.110;5.592;2022-07-12T12:44:03;5.10;;;4.05;;
62861;SDS011;48953;53.110;5.592;2022-07-12T12:49:45;7.45;;;4.47;;
62861;SDS011;48953;53.110;5.592;2022-07-12T12:52:11;5.32;;;4.28;;
62861;SDS011;48953;53.110;5.592;2022-07-12T12:54:37;4.93;;;3.78;;
62861;SDS011;48953;53.110;5.592;2022-07-12T12:57:03;4.50;;;3.63;;
62861;SDS011;48953;53.110;5.592;2022-07-12T12:59:30;3.40;;;3.17;;
62861;SDS011;48953;53.110;5.592;2022-07-12T13:01:56;3.97;;;3.40;;
62861;SDS011;48953;53.110;5.592;2022-07-12T13:04:31;4.47;;;4.07;;
62861;SDS011;48953;53.110;5.592;2022-07-12T13:06:58;5.85;;;4.35;;
62861;SDS011;48953;53.110;5.592;2022-07-12T13:09:24;5.57;;;3.80;;
62861;SDS011;48953;53.110;5.592;2022-07-12T13:11:54;3.55;;;3.25;;
62861;SDS011;48953;53.110;5.592;2022-07-12T13:14:21;3.90;;;3.60;;
62861;SDS011;48953;53.110;5.592;2022-07-12T13:16:46;4.25;;;3.50;;
62861;SDS011;48953;53.110;5.592;2022-07-12T13:19:12;4.47;;;4.07;;
62861;SDS011;48953;53.110;5.592;2022-07-12T13:21:38;3.42;;;2.95;;
62861;SDS011;48953;53.110;5.592;2022-07-12T13:24:03;3.63;;;3.30;;
62861;SDS011;48953;53.110;5.592;2022-07-12T13:26:29;4.80;;;4.40;;
62861;SDS011;48953;53.110;5.592;2022-07-12T13:28:55;4.85;;;3.50;;
62861;SDS011;48953;53.110;5.592;2022-07-12T13:31:21;4.60;;;4.13;;
62861;SDS011;48953;53.110;5.592;2022-07-12T13:33:47;3.95;;;3.60;;
62861;SDS011;48953;53.110;5.592;2022-07-12T13:36:13;6.68;;;4.13;;
62861;SDS011;48953;53.110;5.592;2022-07-12T13:38:39;5.22;;;4.40;;
62861;SDS011;48953;53.110;5.592;2022-07-12T13:41:05;5.85;;;5.30;;
62861;SDS011;48953;53.110;5.592;2022-07-12T13:43:32;5.13;;;3.92;;
62861;SDS011;48953;53.110;5.592;2022-07-12T13:45:57;4.97;;;4.50;;
62861;SDS011;48953;53.110;5.592;2022-07-12T13:48:23;4.75;;;4.30;;
62861;SDS011;48953;53.110;5.592;2022-07-12T13:50:49;5.20;;;4.30;;
62861;SDS011;48953;53.110;5.592;2022-07-12T13:53:15;5.35;;;4.85;;
62861;SDS011;48953;53.110;5.592;2022-07-12T13:55:41;4.32;;;3.80;;
62861;SDS011;48953;53.110;5.592;2022-07-12T13:58:08;6.45;;;4.63;;
62861;SDS011;48953;53.110;5.592;2022-07-12T14:00:34;5.72;;;4.53;;
62861;SDS011;48953;53.110;5.592;2022-07-12T14:03:00;4.75;;;4.32;;
62861;SDS011;48953;53.110;5.592;2022-07-12T14:05:25;8.75;;;4.10;;
62861;SDS011;48953;53.110;5.592;2022-07-12T14:07:52;3.80;;;3.50;;
62861;SDS011;48953;53.110;5.592;2022-07-12T14:10:19;5.35;;;4.00;;
62861;SDS011;48953;53.110;5.592;2022-07-12T14:12:44;6.82;;;4.95;;
62861;SDS011;48953;53.110;5.592;2022-07-12T14:18:03;8.10;;;5.63;;
62861;SDS011;48953;53.110;5.592;2022-07-12T14:20:30;8.63;;;6.85;;
62861;SDS011;48953;53.110;5.592;2022-07-12T14:23:04;6.85;;;6.15;;
62861;SDS011;48953;53.110;5.592;2022-07-12T14:25:31;7.18;;;5.63;;
62861;SDS011;48953;53.110;5.592;2022-07-12T14:27:57;6.60;;;5.60;;
62861;SDS011;48953;53.110;5.592;2022-07-12T14:30:22;7.53;;;6.68;;
62861;SDS011;48953;53.110;5.592;2022-07-12T14:32:49;8.88;;;6.20;;
62861;SDS011;48953;53.110;5.592;2022-07-12T14:35:14;7.75;;;6.85;;
62861;SDS011;48953;53.110;5.592;2022-07-12T14:37:40;6.50;;;5.72;;
62861;SDS011;48953;53.110;5.592;2022-07-12T14:40:06;6.32;;;5.65;;
62861;SDS011;48953;53.110;5.592;2022-07-12T14:42:33;6.50;;;5.90;;
62861;SDS011;48953;53.110;5.592;2022-07-12T14:44:58;7.55;;;6.85;;
62861;SDS011;48953;53.110;5.592;2022-07-12T14:47:24;8.35;;;7.65;;
62861;SDS011;48953;53.110;5.592;2022-07-12T14:49:50;8.95;;;7.80;;
62861;SDS011;48953;53.110;5.592;2022-07-12T14:52:18;6.57;;;5.88;;
62861;SDS011;48953;53.110;5.592;2022-07-12T14:54:44;6.55;;;5.85;;
62861;SDS011;48953;53.110;5.592;2022-07-12T14:57:09;7.68;;;6.05;;
62861;SDS011;48953;53.110;5.592;2022-07-12T14:59:36;6.68;;;5.90;;
62861;SDS011;48953;53.110;5.592;2022-07-12T15:02:01;7.18;;;6.07;;
62861;SDS011;48953;53.110;5.592;2022-07-12T15:04:27;7.50;;;5.43;;
62861;SDS011;48953;53.110;5.592;2022-07-12T15:06:54;4.85;;;4.40;;
62861;SDS011;48953;53.110;5.592;2022-07-12T15:09:19;6.30;;;5.70;;
62861;SDS011;48953;53.110;5.592;2022-07-12T15:11:45;5.30;;;4.80;;